Time;durP1;ratioP1;P1;durP2;ratioP2;P2;SDS_P1;SDS_P2;PMS_P1;PMS_P2;Temp;Humidity;BMP_temperature;BMP_pressure;BME280_temperature;BME280_humidity;BME280_pressure;Samples;Min_cycle;Max_cycle;Signal;HPM_P1;HPM_P2
2022/09/21 00:01:50;;;;;;;7.47;5.10;;;;;;;6.36;89.64;101289.81;5099942;28;20479;-66
2022/09/21 00:04:17;;;;;;;5.57;5.00;;;;;;;6.39;89.92;101289.63;5119739;28;20446;-67
2022/09/21 00:06:44;;;;;;;7.33;5.23;;;;;;;6.42;89.86;101289.44;5116754;28;20545;-66
2022/09/21 00:09:11;;;;;;;4.50;4.10;;;;;;;6.39;89.70;101295.81;5099135;28;20467;-66
2022/09/21 00:11:38;;;;;;;4.90;4.40;;;;;;;6.34;89.86;101297.00;5098402;28;20509;-66
2022/09/21 00:14:07;;;;;;;7.90;5.33;;;;;;;6.29;89.68;101293.75;5119736;28;20458;-66
2022/09/21 00:16:34;;;;;;;5.43;4.67;;;;;;;6.28;89.84;101300.00;5111334;28;20508;-66
2022/09/21 00:19:02;;;;;;;5.83;5.10;;;;;;;6.22;89.86;101296.75;5098379;28;20997;-66
2022/09/21 00:21:29;;;;;;;5.07;4.57;;;;;;;6.19;89.79;101293.41;5097987;28;20470;-66
2022/09/21 00:23:56;;;;;;;7.23;4.90;;;;;;;6.20;90.17;101296.00;5118485;28;20422;-65
2022/09/21 00:26:26;;;;;;;6.27;5.27;;;;;;;6.20;89.87;101303.94;5120916;28;20535;-65
2022/09/21 00:28:54;;;;;;;5.83;4.90;;;;;;;6.22;89.93;101299.41;5116453;28;20803;-65
2022/09/21 00:31:21;;;;;;;6.93;5.00;;;;;;;6.24;89.94;101298.47;5112511;28;20565;-65
2022/09/21 00:33:48;;;;;;;5.40;4.90;;;;;;;6.25;89.88;101292.22;5102479;28;20463;-65
2022/09/21 00:36:17;;;;;;;5.40;4.73;;;;;;;6.25;89.76;101302.81;5115003;28;20497;-65
2022/09/21 00:38:45;;;;;;;8.00;4.93;;;;;;;6.20;89.50;101305.75;5123816;28;20496;-65
2022/09/21 00:41:12;;;;;;;7.13;5.57;;;;;;;6.20;89.38;101305.75;5104809;28;21362;-65
2022/09/21 00:43:43;;;;;;;5.67;4.20;;;;;;;6.24;89.31;101301.13;5111379;28;20441;-65
2022/09/21 00:46:15;;;;;;;6.30;4.10;;;;;;;6.24;89.51;101299.31;5121906;28;20470;-65
2022/09/21 00:48:42;;;;;;;4.63;4.17;;;;;;;6.15;89.69;101300.69;5111563;28;20435;-66
2022/09/21 00:51:09;;;;;;;6.83;5.00;;;;;;;6.04;89.83;101300.44;5105354;28;20537;-66
2022/09/21 00:53:38;;;;;;;6.33;3.87;;;;;;;6.02;89.95;101308.50;5107565;28;20439;-67
2022/09/21 00:56:05;;;;;;;7.83;4.67;;;;;;;5.97;89.96;101307.91;5112491;28;20477;-66
2022/09/21 00:58:34;;;;;;;4.70;4.20;;;;;;;5.98;89.93;101316.72;5086682;28;20519;-66
2022/09/21 01:01:01;;;;;;;5.60;4.30;;;;;;;5.95;89.90;101314.19;5102392;28;20532;-66
2022/09/21 01:03:30;;;;;;;4.63;4.20;;;;;;;5.92;90.27;101312.56;5108223;28;20435;-65
2022/09/21 01:05:57;;;;;;;3.67;3.17;;;;;;;5.89;90.05;101315.38;5100559;28;20499;-65
2022/09/21 01:08:25;;;;;;;6.23;4.40;;;;;;;5.91;90.19;101313.50;5101794;28;20908;-65
2022/09/21 01:11:06;;;;;;;5.50;4.07;;;;;;;5.93;89.93;101318.72;5102970;28;20557;-65
2022/09/21 01:13:42;;;;;;;5.53;4.03;;;;;;;5.90;89.89;101314.44;5102204;28;20992;-65
2022/09/21 01:16:13;;;;;;;7.23;4.33;;;;;;;5.90;90.17;101309.13;5114033;28;20473;-65
2022/09/21 01:18:45;;;;;;;4.50;3.53;;;;;;;5.86;89.77;101315.56;5122198;28;20545;-65
2022/09/21 01:21:22;;;;;;;6.33;4.10;;;;;;;5.92;89.96;101317.00;5118681;28;20496;-65
2022/09/21 01:24:02;;;;;;;6.03;4.60;;;;;;;5.87;89.79;101311.09;5102420;28;20467;-65
2022/09/21 01:26:43;;;;;;;4.80;3.70;;;;;;;5.80;89.71;101323.88;5101220;28;20505;-65
2022/09/21 01:29:16;;;;;;;4.03;3.60;;;;;;;5.83;89.79;101305.09;5104171;28;20477;-65
2022/09/21 01:31:48;;;;;;;4.60;3.77;;;;;;;5.83;90.01;101326.31;5110230;28;20482;-65
2022/09/21 01:34:19;;;;;;;4.10;3.70;;;;;;;5.84;90.16;101310.31;5120532;28;20438;-65
2022/09/21 01:36:47;;;;;;;8.30;3.83;;;;;;;5.81;89.88;101317.59;5120470;28;20538;-65
2022/09/21 01:39:14;;;;;;;7.00;3.87;;;;;;;5.76;90.09;101317.84;5101017;28;20473;-65
2022/09/21 01:41:45;;;;;;;7.93;3.70;;;;;;;5.70;89.54;101325.31;5111161;28;20478;-65
2022/09/21 01:44:15;;;;;;;7.33;4.00;;;;;;;5.66;89.64;101325.47;5103159;28;20550;-65
2022/09/21 01:46:42;;;;;;;5.77;4.30;;;;;;;5.66;89.55;101333.41;5103218;28;20486;-66
2022/09/21 01:49:11;;;;;;;5.37;4.33;;;;;;;5.70;89.41;101323.50;5101515;28;20438;-65
2022/09/21 01:51:42;;;;;;;4.80;4.10;;;;;;;5.64;89.54;101321.16;5107514;28;20474;-65
2022/09/21 01:54:12;;;;;;;4.23;3.43;;;;;;;5.55;89.99;101324.31;5085397;28;20436;-65
2022/09/21 01:56:41;;;;;;;5.60;4.13;;;;;;;5.51;90.17;101328.94;5120714;28;20466;-65
2022/09/21 01:59:13;;;;;;;6.10;4.80;;;;;;;5.43;89.88;101321.38;5104993;28;20498;-65
2022/09/21 02:01:45;;;;;;;5.70;4.67;;;;;;;5.44;90.08;101324.88;5100265;28;20478;-65
2022/09/21 02:04:13;;;;;;;6.67;6.10;;;;;;;5.45;90.22;101329.25;5100891;28;20466;-66
2022/09/21 02:06:41;;;;;;;3.70;3.40;;;;;;;5.49;90.06;101322.84;5110274;28;20506;-65
2022/09/21 02:09:09;;;;;;;5.30;3.30;;;;;;;5.49;89.86;101328.16;5104585;28;20454;-66
2022/09/21 02:11:42;;;;;;;4.80;3.70;;;;;;;5.49;89.99;101332.63;5100362;28;20482;-66
2022/09/21 02:14:10;;;;;;;4.53;4.13;;;;;;;5.44;89.71;101325.75;5103057;28;20443;-65
2022/09/21 02:16:39;;;;;;;5.07;3.97;;;;;;;5.40;89.62;101329.50;5099770;28;20510;-66
2022/09/21 02:19:15;;;;;;;6.27;3.50;;;;;;;5.42;89.87;101335.56;5104067;28;20486;-66
2022/09/21 02:21:50;;;;;;;3.90;3.60;;;;;;;5.37;89.82;101328.81;5115666;28;20513;-66
2022/09/21 02:24:24;;;;;;;4.97;4.47;;;;;;;5.34;90.03;101331.63;5102733;28;21071;-66
2022/09/21 02:26:55;;;;;;;5.67;5.10;;;;;;;5.31;89.79;101334.41;5117605;28;20510;-66
2022/09/21 02:29:26;;;;;;;4.27;3.23;;;;;;;5.31;89.95;101334.41;5121890;28;20418;-66
2022/09/21 02:31:55;;;;;;;6.03;3.90;;;;;;;5.27;89.91;101326.63;5102644;28;20502;-66
2022/09/21 02:34:31;;;;;;;4.00;3.60;;;;;;;5.24;89.77;101337.41;5115540;28;20509;-65
2022/09/21 02:37:03;;;;;;;5.30;4.13;;;;;;;5.21;89.79;101334.91;5113513;28;20522;-65
2022/09/21 02:39:32;;;;;;;6.10;3.50;;;;;;;5.18;89.69;101327.09;5101059;28;20999;-65
2022/09/21 02:42:03;;;;;;;5.00;4.00;;;;;;;5.18;89.99;101320.97;5117917;28;20494;-65
2022/09/21 02:44:33;;;;;;;6.43;4.00;;;;;;;5.20;89.46;101325.22;5100513;28;20608;-65
2022/09/21 02:47:04;;;;;;;3.47;3.17;;;;;;;5.21;89.69;101313.69;5107939;28;20481;-65
2022/09/21 02:49:35;;;;;;;5.53;3.90;;;;;;;5.29;89.46;101326.53;5100131;28;20423;-66
2022/09/21 02:52:07;;;;;;;5.37;3.70;;;;;;;5.16;89.21;101320.19;5099137;28;20479;-65
2022/09/21 02:54:34;;;;;;;3.73;3.43;;;;;;;5.10;89.50;101321.34;5115583;28;20494;-65
2022/09/21 02:57:02;;;;;;;5.07;3.83;;;;;;;5.02;89.54;101316.44;5112184;28;20498;-65
2022/09/21 02:59:29;;;;;;;4.80;4.00;;;;;;;5.03;89.70;101317.28;5100043;28;20494;-65
2022/09/21 03:01:55;;;;;;;4.60;3.70;;;;;;;4.92;89.81;101325.78;5098920;28;21084;-66
2022/09/21 03:04:22;;;;;;;6.73;3.37;;;;;;;4.89;90.00;101320.63;5105441;28;20467;-65
2022/09/21 03:06:51;;;;;;;4.20;3.57;;;;;;;4.90;90.08;101322.38;5117218;28;20466;-65
2022/09/21 03:09:17;;;;;;;4.57;3.60;;;;;;;4.84;89.91;101318.25;5106507;28;20431;-65
2022/09/21 03:11:44;;;;;;;3.80;3.43;;;;;;;4.82;90.08;101313.94;5099523;28;20474;-65
2022/09/21 03:14:11;;;;;;;6.23;4.40;;;;;;;4.85;90.14;101317.28;5111121;28;21051;-65
2022/09/21 03:16:38;;;;;;;4.93;3.60;;;;;;;4.87;89.87;101325.16;5118050;28;20504;-65
2022/09/21 03:19:05;;;;;;;4.90;4.10;;;;;;;4.90;89.99;101333.81;5118415;28;20505;-65
2022/09/21 03:21:31;;;;;;;4.10;3.17;;;;;;;4.93;90.12;101337.25;5114356;28;20498;-65
2022/09/21 03:24:00;;;;;;;4.80;4.20;;;;;;;4.89;89.88;101329.44;5099894;28;20439;-66
2022/09/21 03:26:26;;;;;;;4.10;3.70;;;;;;;4.94;89.67;101331.88;5110432;28;20477;-65
2022/09/21 03:28:53;;;;;;;5.37;3.53;;;;;;;4.94;89.70;101333.66;5099981;28;21038;-65
2022/09/21 03:31:21;;;;;;;6.00;4.37;;;;;;;4.84;89.75;101336.78;5099322;28;20474;-65
2022/09/21 03:33:48;;;;;;;4.60;4.20;;;;;;;4.82;89.87;101330.69;5118540;28;20422;-66
2022/09/21 03:36:15;;;;;;;4.90;4.23;;;;;;;4.79;89.98;101338.81;5115972;28;20471;-65
2022/09/21 03:38:41;;;;;;;9.30;4.57;;;;;;;4.81;90.34;101341.34;5099795;28;20482;-65
2022/09/21 03:41:10;;;;;;;4.70;3.97;;;;;;;4.82;90.34;101333.34;5119286;28;20553;-65
2022/09/21 03:43:36;;;;;;;4.27;3.60;;;;;;;4.81;90.31;101342.25;5100539;28;20958;-65
2022/09/21 03:46:03;;;;;;;6.40;4.27;;;;;;;4.83;90.40;101340.38;5119049;28;20478;-65
2022/09/21 03:48:31;;;;;;;5.17;4.40;;;;;;;4.81;90.04;101346.66;5102198;28;20467;-65
2022/09/21 03:50:58;;;;;;;5.53;4.60;;;;;;;4.81;90.04;101346.66;5098153;28;20890;-65
2022/09/21 03:53:24;;;;;;;4.77;3.70;;;;;;;4.83;90.09;101344.81;5092076;28;20439;-65
2022/09/21 03:55:52;;;;;;;5.43;3.77;;;;;;;4.90;90.55;101333.81;5098361;28;20482;-65
2022/09/21 03:58:21;;;;;;;5.07;4.27;;;;;;;4.88;90.16;101345.44;5104186;28;20501;-65
2022/09/21 04:00:47;;;;;;;5.40;3.97;;;;;;;4.82;89.89;101338.63;5101470;28;20478;-67
2022/09/21 04:03:14;;;;;;;5.10;4.33;;;;;;;4.83;89.82;101345.66;5105298;28;20452;-65
2022/09/21 04:05:40;;;;;;;4.77;3.70;;;;;;;4.79;89.72;101340.59;5109137;28;20470;-65
2022/09/21 04:08:08;;;;;;;4.00;3.53;;;;;;;4.75;89.62;101331.94;5080651;28;20523;-65
2022/09/21 04:10:35;;;;;;;6.30;4.23;;;;;;;4.80;89.89;101342.31;5113575;28;20471;-65
2022/09/21 04:13:03;;;;;;;3.90;3.50;;;;;;;4.78;89.82;101337.09;5121259;28;20441;-65
2022/09/21 04:15:35;;;;;;;5.63;4.00;;;;;;;4.75;89.74;101337.22;5122557;27;20533;-65
2022/09/21 04:18:02;;;;;;;6.60;4.33;;;;;;;4.72;90.01;101342.66;5122396;28;20553;-65
2022/09/21 04:20:29;;;;;;;4.23;3.80;;;;;;;4.79;89.73;101343.22;5114894;28;20530;-66
2022/09/21 04:22:55;;;;;;;6.17;4.20;;;;;;;4.66;89.63;101337.69;5105115;28;20446;-65
2022/09/21 04:25:22;;;;;;;8.37;4.13;;;;;;;4.69;89.77;101345.50;5118494;27;20466;-65
2022/09/21 04:27:48;;;;;;;6.33;4.10;;;;;;;4.65;89.93;101341.25;5101187;28;20467;-66
2022/09/21 04:30:16;;;;;;;11.30;4.43;;;;;;;4.62;89.97;101347.59;5117650;28;20446;-66
2022/09/21 04:32:45;;;;;;;4.90;4.00;;;;;;;4.60;90.36;101349.47;5092406;28;20526;-66
2022/09/21 04:35:11;;;;;;;6.30;3.83;;;;;;;4.57;90.10;101341.66;5093175;28;20455;-69
2022/09/21 04:37:38;;;;;;;5.73;4.17;;;;;;;4.59;90.36;101344.22;5102593;28;20451;-69
2022/09/21 04:40:06;;;;;;;6.83;4.77;;;;;;;4.59;90.35;101349.53;5105364;28;20576;-70
2022/09/21 04:42:33;;;;;;;4.50;3.77;;;;;;;4.57;90.28;101346.09;5108549;28;20505;-69
2022/09/21 04:45:00;;;;;;;4.77;4.07;;;;;;;4.56;90.18;101357.63;5117079;28;20482;-70
2022/09/21 04:47:29;;;;;;;5.53;3.80;;;;;;;4.53;90.34;101353.31;5081932;28;20715;-69
2022/09/21 04:49:57;;;;;;;4.50;3.80;;;;;;;4.46;90.47;101358.06;5081450;28;20474;-70
2022/09/21 04:52:24;;;;;;;4.57;3.73;;;;;;;4.49;90.57;101359.69;5086396;28;20558;-70
2022/09/21 04:54:50;;;;;;;4.23;3.83;;;;;;;4.44;90.41;101359.91;5100007;28;20439;-69
2022/09/21 04:57:17;;;;;;;7.20;4.40;;;;;;;4.44;90.43;101354.63;5106467;28;20504;-69
2022/09/21 04:59:44;;;;;;;5.33;3.90;;;;;;;4.42;90.44;101361.78;5110581;28;21036;-69
2022/09/21 05:02:11;;;;;;;3.87;3.47;;;;;;;4.42;90.64;101361.78;5100746;28;20505;-68
2022/09/21 05:04:37;;;;;;;5.60;4.33;;;;;;;4.42;90.45;101364.44;5102384;28;20542;-69
2022/09/21 05:07:05;;;;;;;4.20;3.73;;;;;;;4.46;90.32;101365.13;5100347;28;21390;-69
2022/09/21 05:12:16;;;;;;;5.80;3.77;;;;;;;4.48;90.38;101366.78;5113786;28;20654;-68
2022/09/21 05:14:43;;;;;;;5.67;4.13;;;;;;;4.48;90.03;101373.91;5118079;28;20473;-65
2022/09/21 05:17:10;;;;;;;5.73;4.80;;;;;;;4.53;90.30;101369.19;5104364;28;20490;-73
2022/09/21 05:19:37;;;;;;;4.60;3.73;;;;;;;4.64;90.16;101374.00;5104335;28;20750;-73
2022/09/21 05:22:05;;;;;;;4.10;3.70;;;;;;;4.66;89.89;101377.44;5109203;28;20962;-71
2022/09/21 05:24:32;;;;;;;4.33;3.97;;;;;;;4.72;89.88;101385.06;5106742;28;20471;-70
2022/09/21 05:26:58;;;;;;;5.10;4.00;;;;;;;4.83;89.98;101384.56;5095549;28;20489;-72
2022/09/21 05:29:26;;;;;;;4.73;4.20;;;;;;;4.89;89.79;101385.09;5099076;28;20451;-71
2022/09/21 05:31:55;;;;;;;4.73;4.00;;;;;;;4.95;89.65;101391.91;5108353;28;20528;-73
2022/09/21 05:34:31;;;;;;;5.60;4.13;;;;;;;5.00;89.90;101383.69;5113637;28;20511;-72
2022/09/21 05:37:02;;;;;;;4.33;3.90;;;;;;;5.09;89.66;101384.09;5100042;28;20510;-73
2022/09/21 05:39:30;;;;;;;7.00;4.43;;;;;;;5.06;89.73;101391.34;5101273;28;20473;-73
2022/09/21 05:41:57;;;;;;;7.47;4.40;;;;;;;5.20;89.69;101391.50;5096335;28;20502;-73
2022/09/21 05:44:25;;;;;;;4.47;4.07;;;;;;;5.33;89.45;101396.19;5099830;28;20514;-73
2022/09/21 05:46:57;;;;;;;5.30;4.73;;;;;;;5.44;89.31;101388.53;5100581;28;20502;-76
2022/09/21 05:49:32;;;;;;;4.43;4.03;;;;;;;5.57;89.24;101394.06;5093308;28;20503;-79
2022/09/21 05:52:03;;;;;;;5.00;4.50;;;;;;;5.73;88.94;101394.09;5110552;28;20553;-78
2022/09/21 05:54:42;;;;;;;6.70;4.20;;;;;;;6.05;88.65;101396.88;5100623;28;20915;-79
2022/09/21 05:57:13;;;;;;;7.10;5.37;;;;;;;7.31;88.99;101397.72;5095735;28;20477;-80
2022/09/21 05:59:49;;;;;;;7.80;5.10;;;;;;;8.51;85.23;101395.66;5107193;28;20535;-76
2022/09/21 06:02:23;;;;;;;6.10;5.50;;;;;;;9.15;75.97;101395.88;5112773;28;20520;-71
2022/09/21 06:04:50;;;;;;;6.20;4.67;;;;;;;9.64;70.91;101393.50;5079191;28;20564;-74
2022/09/21 06:07:17;;;;;;;5.53;4.00;;;;;;;10.21;68.02;101405.50;5089262;28;20550;-74
2022/09/21 06:09:45;;;;;;;7.63;3.50;;;;;;;10.09;68.17;101396.56;5100483;28;20848;-75
2022/09/21 06:12:12;;;;;;;3.60;3.30;;;;;;;10.49;68.19;101410.59;5102770;28;20496;-75
2022/09/21 06:14:39;;;;;;;4.00;3.30;;;;;;;11.38;64.53;101405.78;5105124;28;20436;-76
2022/09/21 06:17:05;;;;;;;3.90;3.50;;;;;;;11.07;64.56;101415.28;5098994;28;20489;-75
2022/09/21 06:19:32;;;;;;;3.87;2.97;;;;;;;12.14;61.70;101413.34;5095349;28;20501;-71
2022/09/21 06:21:59;;;;;;;7.63;3.10;;;;;;;12.31;60.35;101411.97;5098198;28;20471;-73
2022/09/21 06:24:25;;;;;;;3.77;3.10;;;;;;;12.16;60.58;101406.88;5099464;28;20424;-75
2022/09/21 06:26:53;;;;;;;4.60;3.33;;;;;;;11.74;61.54;101406.59;5099320;28;20479;-73
2022/09/21 06:29:22;;;;;;;4.13;3.10;;;;;;;12.17;61.62;101405.03;5113372;28;20451;-73
2022/09/21 06:31:49;;;;;;;4.50;3.27;;;;;;;12.66;59.53;101410.97;5098991;28;20483;-71
2022/09/21 06:34:16;;;;;;;3.73;3.43;;;;;;;14.15;54.87;101409.09;5103678;28;20430;-74
2022/09/21 06:36:44;;;;;;;5.93;3.00;;;;;;;14.22;54.16;101407.56;5103916;28;20719;-73
2022/09/21 06:39:11;;;;;;;5.40;3.60;;;;;;;15.03;51.63;101410.16;5112331;28;20447;-71
2022/09/21 06:41:37;;;;;;;4.00;3.10;;;;;;;16.29;48.55;101405.50;5116565;28;20478;-73
2022/09/21 06:44:05;;;;;;;3.70;3.13;;;;;;;15.37;50.88;101403.47;5099924;28;20500;-71
2022/09/21 06:46:32;;;;;;;6.37;3.80;;;;;;;15.48;49.58;101402.47;5093150;27;20503;-71
2022/09/21 06:48:58;;;;;;;4.27;3.50;;;;;;;15.38;50.43;101406.03;5093002;28;20814;-73
2022/09/21 06:51:25;;;;;;;5.80;3.30;;;;;;;14.29;53.36;101411.41;5094717;28;21037;-72
2022/09/21 06:53:54;;;;;;;9.27;3.40;;;;;;;14.05;55.41;101408.19;5109459;28;20926;-73
2022/09/21 06:56:21;;;;;;;3.33;3.03;;;;;;;14.87;53.48;101407.16;5115803;28;20499;-73
2022/09/21 06:58:48;;;;;;;4.50;3.60;;;;;;;15.24;53.06;101406.44;5099435;28;20448;-74
2022/09/21 07:01:16;;;;;;;6.60;3.27;;;;;;;16.01;50.06;101407.34;5102987;28;20484;-74
2022/09/21 07:03:43;;;;;;;4.17;2.97;;;;;;;16.04;49.64;101408.88;5118462;28;20470;-75
2022/09/21 07:06:13;;;;;;;4.30;3.50;;;;;;;16.59;48.39;101408.03;5116287;28;20580;-75
2022/09/21 07:08:39;;;;;;;4.33;3.17;;;;;;;17.77;45.46;101401.47;5105947;28;20458;-74
2022/09/21 07:11:06;;;;;;;5.23;3.50;;;;;;;18.67;43.61;101408.34;5092455;28;20464;-74
2022/09/21 07:13:34;;;;;;;3.90;3.50;;;;;;;18.99;42.34;101408.44;5098562;28;20493;-71
2022/09/21 07:16:04;;;;;;;5.67;3.67;;;;;;;18.68;43.17;101407.31;5098802;28;20476;-74
2022/09/21 07:18:32;;;;;;;5.70;4.13;;;;;;;19.86;40.50;101410.63;5097242;28;20529;-74
2022/09/21 07:21:02;;;;;;;3.67;3.33;;;;;;;19.05;41.96;101412.34;5098359;28;20469;-73
2022/09/21 07:23:28;;;;;;;7.50;3.70;;;;;;;19.04;42.51;101415.22;5097561;28;20564;-72
2022/09/21 07:25:55;;;;;;;5.73;4.47;;;;;;;19.52;41.54;101413.53;5096774;28;20475;-73
2022/09/21 07:28:22;;;;;;;4.30;3.50;;;;;;;19.11;42.70;101414.41;5098822;28;20492;-74
2022/09/21 07:30:48;;;;;;;4.93;3.83;;;;;;;19.31;42.29;101411.34;5098629;28;20500;-74
2022/09/21 07:33:15;;;;;;;4.83;3.90;;;;;;;18.96;43.45;101414.19;5098684;28;20456;-72
2022/09/21 07:35:50;;;;;;;5.43;4.40;;;;;;;18.88;44.07;101414.19;5101770;28;20554;-73
2022/09/21 07:38:17;;;;;;;6.80;4.07;;;;;;;18.72;44.97;101422.25;5104890;28;20448;-73
2022/09/21 07:40:44;;;;;;;5.37;4.50;;;;;;;18.44;45.46;101415.22;5103747;28;20473;-71
2022/09/21 07:43:10;;;;;;;5.90;3.93;;;;;;;18.85;44.76;101419.91;5103332;28;20510;-73
2022/09/21 07:45:37;;;;;;;5.00;3.63;;;;;;;19.17;44.00;101416.41;5101308;28;20476;-73
2022/09/21 07:48:04;;;;;;;4.97;3.20;;;;;;;18.80;45.15;101419.53;5099386;28;20455;-71
2022/09/21 07:50:32;;;;;;;4.20;3.80;;;;;;;19.07;44.70;101414.88;5102149;28;20754;-72
2022/09/21 07:53:00;;;;;;;5.90;3.90;;;;;;;18.78;45.28;101413.44;5120924;28;20538;-71
2022/09/21 07:55:27;;;;;;;7.00;4.10;;;;;;;19.74;43.32;101409.31;5121761;28;20550;-73
2022/09/21 08:00:38;;;;;;;5.00;3.70;;;;;;;18.89;45.73;101406.91;5102087;28;20491;-71
2022/09/21 08:03:05;;;;;;;4.00;3.60;;;;;;;20.23;42.90;101413.75;5115460;28;20455;-73
2022/09/21 08:05:32;;;;;;;5.40;3.80;;;;;;;20.29;42.86;101418.44;5098076;28;20470;-72
2022/09/21 08:08:00;;;;;;;6.80;3.87;;;;;;;19.82;43.58;101413.84;5118984;28;20867;-72
2022/09/21 08:10:27;;;;;;;6.10;3.43;;;;;;;20.35;42.38;101415.03;5119690;28;20472;-70
2022/09/21 08:12:53;;;;;;;5.93;3.80;;;;;;;19.91;43.75;101419.09;5121961;28;20474;-73
2022/09/21 08:15:20;;;;;;;3.97;2.90;;;;;;;19.77;45.04;101417.06;5121995;28;20460;-73
2022/09/21 08:17:47;;;;;;;3.80;3.40;;;;;;;20.43;43.75;101425.00;5104926;28;20453;-74
2022/09/21 08:20:14;;;;;;;4.73;3.53;;;;;;;19.88;45.30;101427.59;5100713;28;20868;-70
2022/09/21 08:22:41;;;;;;;5.30;3.80;;;;;;;20.81;43.58;101425.19;5109898;28;20440;-72
2022/09/21 08:25:10;;;;;;;4.23;3.83;;;;;;;20.95;42.92;101421.69;5102729;28;20437;-73
2022/09/21 08:27:39;;;;;;;4.70;4.03;;;;;;;22.13;39.82;101424.91;5100856;28;20513;-74
2022/09/21 08:30:07;;;;;;;7.00;4.13;;;;;;;21.26;41.72;101426.22;5114313;28;20515;-73
2022/09/21 08:32:34;;;;;;;6.27;3.77;;;;;;;22.00;41.17;101429.13;5107894;28;20444;-74
2022/09/21 08:35:00;;;;;;;6.80;4.60;;;;;;;21.14;42.58;101430.41;5109508;28;20515;-72
2022/09/21 08:37:28;;;;;;;5.80;3.63;;;;;;;21.19;42.52;101430.69;5108804;28;20537;-72
2022/09/21 08:39:54;;;;;;;5.30;3.90;;;;;;;22.41;40.39;101426.97;5103056;28;20549;-73
2022/09/21 08:42:38;;;;;;;6.00;3.60;;;;;;;22.11;41.23;101425.06;5096274;28;20850;-74
2022/09/21 08:45:10;;;;;;;3.70;3.40;;;;;;;21.41;42.23;101438.00;5089403;28;20478;-73
2022/09/21 08:47:40;;;;;;;6.33;3.70;;;;;;;23.38;38.80;101429.31;5108436;28;20477;-72
2022/09/21 08:50:20;;;;;;;5.73;3.40;;;;;;;22.97;39.42;101429.94;5122690;28;20460;-72
2022/09/21 08:52:46;;;;;;;3.47;3.13;;;;;;;22.92;38.76;101441.44;5122361;28;20433;-72
2022/09/21 08:55:20;;;;;;;5.27;3.40;;;;;;;22.48;39.79;101433.34;5114669;28;20454;-71
2022/09/21 08:57:48;;;;;;;6.73;3.00;;;;;;;23.00;38.61;101426.84;5102502;28;20447;-71
2022/09/21 09:00:16;;;;;;;6.27;3.30;;;;;;;22.02;41.14;101431.66;5105932;28;20472;-72
2022/09/21 09:03:03;;;;;;;6.10;3.17;;;;;;;22.20;40.41;101425.81;5097331;28;20449;-72
2022/09/21 09:05:40;;;;;;;4.23;3.27;;;;;;;20.74;43.74;101433.19;5108088;28;20472;-68
2022/09/21 09:08:38;;;;;;;4.07;3.23;;;;;;;20.84;45.13;101430.28;5114803;28;20481;-71
2022/09/21 09:11:13;;;;;;;4.00;2.50;;;;;;;23.29;38.08;101427.75;5083655;28;20493;-71
2022/09/21 09:14:01;;;;;;;5.17;2.80;;;;;;;23.11;38.96;101429.06;5106235;28;20437;-72
2022/09/21 09:16:34;;;;;;;5.60;2.63;;;;;;;21.83;40.44;101433.06;5119772;28;20502;-72
2022/09/21 09:19:07;;;;;;;4.60;2.60;;;;;;;22.74;41.05;101430.97;5102460;28;20458;-73
2022/09/21 09:21:37;;;;;;;4.80;2.23;;;;;;;23.35;37.02;101428.84;5101891;28;20486;-69
2022/09/21 09:24:06;;;;;;;7.30;2.57;;;;;;;23.83;36.50;101427.16;5101574;28;20502;-68
2022/09/21 09:26:38;;;;;;;4.00;2.23;;;;;;;22.80;38.87;101432.06;5109379;28;20469;-67
2022/09/21 09:29:14;;;;;;;5.13;2.37;;;;;;;23.05;37.60;101431.69;5121850;28;20502;-66
2022/09/21 09:31:41;;;;;;;4.67;1.93;;;;;;;21.41;39.42;101435.28;5101358;28;20477;-67
2022/09/21 09:34:11;;;;;;;5.13;1.70;;;;;;;21.10;40.30;101432.63;5099209;28;20886;-67
2022/09/21 09:36:42;;;;;;;5.73;2.60;;;;;;;23.42;36.04;101433.34;5098146;28;20486;-67
2022/09/21 09:39:11;;;;;;;7.90;2.53;;;;;;;21.81;39.92;101424.22;5114288;28;20476;-67
2022/09/21 09:41:56;;;;;;;8.30;2.03;;;;;;;21.88;38.37;101427.91;5119051;28;20505;-67
2022/09/21 09:44:40;;;;;;;5.60;2.10;;;;;;;19.87;43.11;101425.03;5092549;28;20473;-67
2022/09/21 09:47:15;;;;;;;4.07;1.80;;;;;;;21.42;40.00;101427.97;5097339;28;20496;-68
2022/09/21 09:49:52;;;;;;;3.17;1.70;;;;;;;23.83;34.91;101423.59;5109083;28;21214;-67
2022/09/21 09:52:19;;;;;;;5.07;1.87;;;;;;;24.18;31.56;101429.06;5111788;28;20490;-67
2022/09/21 09:54:46;;;;;;;4.97;1.60;;;;;;;21.83;35.95;101435.78;5110275;28;20487;-67
2022/09/21 09:57:13;;;;;;;7.03;1.90;;;;;;;22.88;35.87;101429.22;5109532;28;20500;-67
2022/09/21 09:59:44;;;;;;;5.47;1.00;;;;;;;23.58;34.28;101426.75;5086924;28;20509;-67
2022/09/21 10:02:20;;;;;;;8.80;1.60;;;;;;;22.22;36.32;101428.38;5103387;28;20505;-67
2022/09/21 10:05:02;;;;;;;3.90;1.23;;;;;;;20.90;37.16;101423.25;5113045;28;20440;-68
2022/09/21 10:07:39;;;;;;;3.03;1.10;;;;;;;21.66;37.83;101426.91;5106144;28;20498;-67
2022/09/21 10:10:31;;;;;;;5.20;1.63;;;;;;;19.47;40.72;101424.88;5114157;28;20421;-67
2022/09/21 10:13:03;;;;;;;5.00;1.30;;;;;;;18.97;42.69;101423.16;5102365;28;20834;-68
2022/09/21 10:15:31;;;;;;;4.10;0.97;;;;;;;20.71;39.52;101422.72;5099047;28;20465;-67
2022/09/21 10:18:02;;;;;;;4.90;1.10;;;;;;;22.08;36.34;101425.47;5106351;28;20459;-67
2022/09/21 10:20:29;;;;;;;4.33;1.20;;;;;;;23.55;32.11;101426.31;5100222;28;20940;-68
2022/09/21 10:22:56;;;;;;;3.20;1.40;;;;;;;25.07;29.26;101424.56;5108778;28;20456;-67
2022/09/21 10:25:23;;;;;;;7.10;1.60;;;;;;;25.75;28.51;101433.44;5119923;28;20429;-67
2022/09/21 10:27:51;;;;;;;5.13;1.00;;;;;;;23.24;30.18;101425.59;5119453;28;21095;-68
2022/09/21 10:30:35;;;;;;;3.23;1.13;;;;;;;20.58;35.82;101425.97;5118852;28;20433;-67
2022/09/21 10:33:02;;;;;;;3.90;1.30;;;;;;;19.37;37.84;101422.38;5108235;28;20456;-66
2022/09/21 10:35:29;;;;;;;6.00;1.20;;;;;;;18.93;40.95;101424.53;5113641;28;20467;-67
2022/09/21 10:38:09;;;;;;;3.33;1.30;;;;;;;20.59;38.40;101422.22;5089575;28;20524;-67
2022/09/21 10:40:37;;;;;;;4.40;1.60;;;;;;;22.56;34.59;101415.00;5101055;28;21017;-67
2022/09/21 10:43:04;;;;;;;6.37;0.93;;;;;;;22.92;33.35;101413.31;5101512;28;20487;-67
2022/09/21 10:45:33;;;;;;;4.97;1.07;;;;;;;23.07;32.80;101410.53;5099479;28;20473;-67
2022/09/21 10:48:08;;;;;;;5.00;1.73;;;;;;;21.87;33.79;101415.31;5111759;28;20446;-67
2022/09/21 10:50:36;;;;;;;4.40;0.93;;;;;;;20.87;35.82;101410.88;5080194;28;20525;-67
2022/09/21 10:53:20;;;;;;;3.43;1.40;;;;;;;19.28;39.61;101414.38;5092687;28;20481;-67
2022/09/21 10:55:52;;;;;;;8.00;1.20;;;;;;;18.17;41.98;101412.72;5108809;28;20521;-67
2022/09/21 10:58:19;;;;;;;4.93;1.30;;;;;;;17.91;42.63;101410.06;5111892;28;20481;-67
2022/09/21 11:00:50;;;;;;;3.83;1.03;;;;;;;17.29;44.89;101408.22;5099703;28;20547;-67
2022/09/21 11:03:38;;;;;;;8.00;1.80;;;;;;;16.97;46.32;101408.81;5095095;28;20543;-70
2022/09/21 11:06:08;;;;;;;7.17;1.40;;;;;;;18.34;40.21;101398.25;5078225;28;20476;-67
2022/09/21 11:08:38;;;;;;;8.50;1.10;;;;;;;19.76;39.82;101399.13;5079533;28;20501;-67
2022/09/21 11:11:17;;;;;;;3.80;1.17;;;;;;;20.27;37.29;101405.03;5079766;28;20577;-67
2022/09/21 11:13:47;;;;;;;3.77;1.23;;;;;;;22.83;34.38;101398.09;5086181;28;20469;-67
2022/09/21 11:16:19;;;;;;;7.83;2.20;;;;;;;22.51;33.83;101403.00;5097445;28;20518;-67
2022/09/21 11:18:54;;;;;;;7.27;0.97;;;;;;;20.86;36.38;101410.03;5074116;28;20453;-67
2022/09/21 11:21:27;;;;;;;5.73;1.20;;;;;;;20.01;37.09;101401.75;5077446;28;20477;-67
2022/09/21 11:24:03;;;;;;;2.40;1.17;;;;;;;19.00;39.10;101406.56;5099369;28;20453;-67
2022/09/21 11:26:35;;;;;;;3.37;0.90;;;;;;;18.68;42.05;101401.91;5098061;28;20560;-68
2022/09/21 11:29:05;;;;;;;4.07;1.00;;;;;;;18.32;41.88;101405.69;5100883;28;20476;-67
2022/09/21 11:31:42;;;;;;;3.63;0.90;;;;;;;18.41;40.29;101399.28;5118085;28;20477;-67
2022/09/21 11:34:35;;;;;;;4.30;0.80;;;;;;;19.12;38.24;101398.97;5119063;28;20459;-67
2022/09/21 11:37:11;;;;;;;6.27;1.90;;;;;;;18.85;39.46;101400.13;5117015;28;20551;-67
2022/09/21 11:39:46;;;;;;;4.03;1.00;;;;;;;21.08;35.44;101388.47;5118119;28;20459;-66
2022/09/21 11:42:22;;;;;;;2.90;0.97;;;;;;;19.47;37.94;101389.63;5109431;28;20552;-66
2022/09/21 11:44:54;;;;;;;5.53;0.93;;;;;;;18.69;39.77;101385.50;5107425;28;20567;-67
2022/09/21 11:47:49;;;;;;;3.50;1.03;;;;;;;18.32;40.60;101381.34;5118114;28;20518;-67